Time;durP1;ratioP1;P1;durP2;ratioP2;P2;SDS_P1;SDS_P2;PMS_P1;PMS_P2;Temp;Humidity;BMP_temperature;BMP_pressure;BME280_temperature;BME280_humidity;BME280_pressure;Samples;Min_cycle;Max_cycle;Signal;HPM_P1;HPM_P2
2024/02/04 00:01:54;;;;;;;3.53;1.70;;;;;;;17.32;56.23;102078.66;10410734;28;20380;-56
2024/02/04 00:06:55;;;;;;;3.38;1.52;;;;;;;17.33;54.95;102080.28;10415666;28;20288;-57
2024/02/04 00:11:55;;;;;;;3.78;1.50;;;;;;;17.31;55.89;102075.16;10421455;28;20048;-56
2024/02/04 00:16:55;;;;;;;3.30;1.73;;;;;;;17.33;54.78;102073.03;10409317;28;20527;-56
2024/02/04 00:21:56;;;;;;;3.80;2.20;;;;;;;17.34;55.23;102081.88;10409472;28;20025;-57
2024/02/04 00:26:56;;;;;;;4.30;2.57;;;;;;;17.33;55.46;102082.97;10410951;28;20523;-56
2024/02/04 00:31:56;;;;;;;4.57;1.90;;;;;;;17.33;55.83;102082.97;10409410;28;20288;-56
2024/02/04 00:36:57;;;;;;;4.38;1.98;;;;;;;17.34;54.93;102087.25;10408800;28;20413;-56
2024/02/04 00:41:57;;;;;;;3.40;2.17;;;;;;;17.32;55.46;102089.38;10409094;28;20021;-55
2024/02/04 00:46:57;;;;;;;2.60;1.85;;;;;;;17.33;56.12;102086.44;10410536;28;20619;-56
2024/02/04 00:51:58;;;;;;;3.80;1.50;;;;;;;17.36;54.75;102087.81;10408869;28;20040;-55
2024/02/04 00:56:59;;;;;;;3.30;1.93;;;;;;;17.34;54.37;102079.22;10408280;28;20272;-57
2024/02/04 01:01:59;;;;;;;3.53;1.55;;;;;;;17.34;54.72;102074.66;10408021;28;20487;-57
2024/02/04 01:07:00;;;;;;;2.97;1.90;;;;;;;17.37;54.71;102074.13;10414616;28;20044;-57
2024/02/04 01:12:00;;;;;;;3.17;1.87;;;;;;;17.35;54.65;102081.63;10419977;28;20029;-57
2024/02/04 01:17:00;;;;;;;4.05;1.85;;;;;;;17.34;54.61;102076.53;10407159;28;20300;-56
2024/02/04 01:22:01;;;;;;;3.08;2.13;;;;;;;17.34;55.51;102077.34;10406667;28;20400;-57
2024/02/04 01:27:01;;;;;;;5.07;1.92;;;;;;;17.34;55.47;102069.28;10407999;28;20018;-57
2024/02/04 01:32:01;;;;;;;2.97;1.87;;;;;;;17.35;55.82;102054.81;10406589;28;20037;-57
2024/02/04 01:37:02;;;;;;;4.63;2.53;;;;;;;17.34;56.02;102071.97;10419937;28;20325;-56
2024/02/04 01:42:02;;;;;;;3.38;1.73;;;;;;;17.30;54.35;102084.28;10405797;28;20021;-56
2024/02/04 01:47:03;;;;;;;4.57;2.13;;;;;;;17.27;55.48;102071.34;10408645;28;20025;-56
2024/02/04 01:52:04;;;;;;;4.55;1.80;;;;;;;17.27;55.86;102066.00;10405943;28;20040;-56
2024/02/04 01:57:04;;;;;;;2.83;1.65;;;;;;;17.30;55.83;102072.75;10404957;28;20021;-57
2024/02/04 02:02:05;;;;;;;3.03;1.40;;;;;;;17.28;54.79;102064.94;10405394;28;20143;-57
2024/02/04 02:07:07;;;;;;;3.75;1.95;;;;;;;17.28;56.23;102064.94;10413340;28;20025;-56
2024/02/04 02:12:12;;;;;;;2.25;1.40;;;;;;;17.31;55.03;102075.16;10415096;28;20044;-57
2024/02/04 02:17:18;;;;;;;3.45;1.63;;;;;;;17.29;54.37;102079.97;10404133;28;20064;-56
2024/02/04 02:22:40;;;;;;;5.55;2.10;;;;;;;17.29;54.89;102085.34;10405584;28;20035;-56
2024/02/04 02:27:49;;;;;;;6.20;2.17;;;;;;;17.29;55.52;102082.66;10407274;28;20025;-56
2024/02/04 02:32:50;;;;;;;2.78;1.50;;;;;;;17.28;55.45;102066.81;10431342;28;20061;-57
2024/02/04 02:37:57;;;;;;;3.67;1.85;;;;;;;17.30;54.85;102067.38;10418020;28;20508;-56
2024/02/04 02:42:58;;;;;;;5.03;2.78;;;;;;;17.29;54.95;102058.53;10403829;28;20527;-57
2024/02/04 02:47:59;;;;;;;4.00;1.60;;;;;;;17.30;54.51;102056.66;10405082;28;20025;-55
2024/02/04 02:53:00;;;;;;;2.05;1.40;;;;;;;17.30;55.38;102056.66;10404380;28;20021;-56
2024/02/04 02:58:00;;;;;;;3.97;1.87;;;;;;;17.30;55.31;102049.44;10410250;28;20053;-55
2024/02/04 03:03:00;;;;;;;4.23;1.97;;;;;;;17.30;55.34;102052.09;10412472;28;20662;-55
2024/02/04 03:08:01;;;;;;;3.83;1.80;;;;;;;17.31;55.02;102058.28;10418137;28;20280;-56
2024/02/04 03:13:02;;;;;;;2.33;1.40;;;;;;;17.30;55.84;102041.38;10448486;28;20025;-56
2024/02/04 03:18:02;;;;;;;3.75;1.75;;;;;;;17.29;55.17;102042.44;10453693;28;20037;-56
2024/02/04 03:23:03;;;;;;;4.88;1.75;;;;;;;17.30;55.52;102054.78;10452263;28;20033;-55
2024/02/04 03:28:04;;;;;;;2.70;1.40;;;;;;;17.31;54.90;102058.28;10439404;28;20420;-55
2024/02/04 03:33:04;;;;;;;2.55;1.50;;;;;;;17.30;55.41;102065.50;10437131;28;20079;-56
2024/02/04 03:38:04;;;;;;;2.87;2.27;;;;;;;17.30;55.08;102065.50;10423289;28;20084;-56
2024/02/04 03:43:05;;;;;;;5.53;1.90;;;;;;;17.29;54.84;102066.56;10410781;28;20272;-56
2024/02/04 03:48:05;;;;;;;5.30;1.87;;;;;;;17.29;55.78;102047.81;10412106;28;20781;-56
2024/02/04 03:53:06;;;;;;;3.45;1.90;;;;;;;17.31;55.08;102047.56;10410497;28;20026;-55
2024/02/04 03:58:06;;;;;;;3.07;1.83;;;;;;;17.29;53.91;102063.09;10410988;28;20022;-57
2024/02/04 04:03:06;;;;;;;4.83;2.53;;;;;;;17.29;55.06;102076.50;10410910;28;20283;-57
2024/02/04 04:08:07;;;;;;;4.27;1.53;;;;;;;17.30;55.00;102084.28;10423814;28;20283;-56
2024/02/04 04:13:07;;;;;;;3.15;1.52;;;;;;;17.29;54.37;102074.63;10412749;28;20319;-57
2024/02/04 04:18:07;;;;;;;3.20;1.60;;;;;;;17.32;54.96;102063.38;10408335;28;20049;-56
2024/02/04 04:23:08;;;;;;;3.57;1.27;;;;;;;17.30;54.42;102049.44;10409026;28;20287;-57
2024/02/04 04:28:08;;;;;;;2.97;2.13;;;;;;;17.29;54.58;102050.50;10410831;28;20319;-56
2024/02/04 04:33:08;;;;;;;11.20;1.90;;;;;;;17.32;55.19;102036.56;10437134;28;20280;-56
2024/02/04 04:38:09;;;;;;;2.00;1.35;;;;;;;17.30;55.00;102040.56;10420314;28;20816;-56
2024/02/04 04:43:09;;;;;;;2.70;1.10;;;;;;;17.32;54.16;102046.50;10408285;28;20017;-56
2024/02/04 04:48:09;;;;;;;3.22;1.60;;;;;;;17.32;54.68;102039.25;10409515;28;20280;-56
2024/02/04 04:53:10;;;;;;;2.13;1.50;;;;;;;17.29;54.70;102039.78;10408124;28;20036;-56
2024/02/04 04:58:10;;;;;;;5.07;1.65;;;;;;;17.30;55.01;102024.50;10408536;28;20730;-57
2024/02/04 05:03:10;;;;;;;6.80;3.33;;;;;;;17.31;54.03;102018.06;10409010;28;20029;-57
2024/02/04 05:08:12;;;;;;;2.83;1.57;;;;;;;17.29;54.00;102020.19;10421805;28;20286;-57
2024/02/04 05:13:13;;;;;;;4.45;2.00;;;;;;;17.32;55.01;102007.09;10423863;28;20349;-56
2024/02/04 05:18:13;;;;;;;2.23;1.33;;;;;;;17.31;54.74;102016.19;10420902;28;20374;-56
2024/02/04 05:23:13;;;;;;;3.50;1.50;;;;;;;17.29;53.94;102021.00;10425108;28;20283;-57
2024/02/04 05:28:13;;;;;;;2.87;1.23;;;;;;;17.31;54.36;102012.69;10423481;28;20284;-55
2024/02/04 05:33:14;;;;;;;3.50;1.17;;;;;;;17.30;54.42;102017.25;10428628;28;20275;-57
2024/02/04 05:38:16;;;;;;;2.40;1.38;;;;;;;17.29;54.02;102023.69;10425523;28;20026;-56
2024/02/04 05:43:16;;;;;;;3.80;1.48;;;;;;;17.33;54.11;102029.34;10423735;28;20022;-56
2024/02/04 05:48:17;;;;;;;3.47;1.17;;;;;;;17.31;54.48;102010.03;10421543;28;20033;-55
2024/02/04 05:53:17;;;;;;;4.50;1.92;;;;;;;17.31;54.33;102001.97;10408904;28;20785;-56
2024/02/04 05:58:17;;;;;;;2.13;1.30;;;;;;;17.31;54.94;101992.06;10409038;28;20503;-56
2024/02/04 06:03:18;;;;;;;2.63;1.60;;;;;;;17.29;54.45;101974.63;10412810;28;20295;-55
2024/02/04 06:08:18;;;;;;;3.87;1.73;;;;;;;17.29;54.35;101996.88;10425804;28;20353;-56
2024/02/04 06:13:18;;;;;;;2.90;1.40;;;;;;;17.29;54.38;101983.47;10413971;28;20292;-56
2024/02/04 06:18:18;;;;;;;5.73;2.53;;;;;;;17.30;55.29;101981.59;10407587;28;20331;-56
2024/02/04 06:23:19;;;;;;;7.83;2.23;;;;;;;17.30;54.71;101979.72;10407530;28;20272;-57
2024/02/04 06:28:19;;;;;;;17.95;3.95;;;;;;;17.28;56.18;101965.75;10410715;28;20276;-57
2024/02/04 06:33:20;;;;;;;35.50;6.37;;;;;;;17.25;57.42;101956.34;10446775;28;20480;-56
2024/02/04 06:38:20;;;;;;;25.98;5.97;;;;;;;17.23;56.66;101958.47;10426417;28;20283;-57
2024/02/04 06:43:21;;;;;;;23.88;4.88;;;;;;;17.22;57.55;101951.50;10416217;28;20485;-57
2024/02/04 06:48:21;;;;;;;19.90;3.88;;;;;;;17.24;56.36;101948.56;10416482;28;20037;-55
2024/02/04 06:53:21;;;;;;;23.27;4.88;;;;;;;17.25;57.62;101937.59;10416164;28;20025;-55
2024/02/04 06:58:22;;;;;;;26.97;5.40;;;;;;;17.19;58.29;101976.16;10415958;28;20079;-57
2024/02/04 07:03:22;;;;;;;27.10;5.10;;;;;;;17.18;58.73;101966.50;10418721;28;20405;-56
2024/02/04 07:08:23;;;;;;;24.15;4.80;;;;;;;17.17;59.20;101962.19;10430340;28;20104;-56
2024/02/04 07:13:23;;;;;;;18.13;5.63;;;;;;;17.19;58.79;101956.59;10416235;28;20037;-56
2024/02/04 07:18:23;;;;;;;26.33;5.73;;;;;;;17.13;59.17;101955.72;10415223;28;20397;-56
2024/02/04 07:23:24;;;;;;;34.33;5.75;;;;;;;17.13;59.75;101949.56;10412943;28;20790;-56
2024/02/04 07:28:24;;;;;;;31.87;6.87;;;;;;;17.11;59.05;101944.44;10416745;28;20468;-56
2024/02/04 07:33:24;;;;;;;22.15;5.47;;;;;;;17.13;57.83;101962.94;10422765;28;20264;-57
2024/02/04 07:38:24;;;;;;;17.53;4.53;;;;;;;17.16;57.82;101946.34;10431773;28;20028;-57
2024/02/04 07:43:25;;;;;;;28.00;7.73;;;;;;;17.08;57.90;101947.66;10445060;28;20631;-53
2024/02/04 07:48:26;;;;;;;20.88;6.22;;;;;;;17.06;58.32;101963.19;10422135;28;20291;-55
2024/02/04 07:53:26;;;;;;;23.80;6.50;;;;;;;17.03;59.41;101971.69;10430027;28;20028;-56
2024/02/04 07:58:27;;;;;;;26.13;5.67;;;;;;;17.00;58.47;101966.84;10416455;28;20067;-56
2024/02/04 08:03:27;;;;;;;28.55;5.47;;;;;;;17.00;58.29;101966.06;10428220;28;20311;-54
2024/02/04 08:08:28;;;;;;;29.67;7.22;;;;;;;17.03;59.21;101960.19;10433552;28;20025;-54
2024/02/04 08:13:28;;;;;;;30.37;5.90;;;;;;;17.04;58.89;101961.78;10413043;28;20021;-53
2024/02/04 08:18:28;;;;;;;33.65;5.93;;;;;;;17.06;58.45;101957.00;10413078;28;20349;-56
2024/02/04 08:23:29;;;;;;;39.47;6.87;;;;;;;17.04;59.62;101949.19;10426135;28;20080;-53
2024/02/04 08:28:29;;;;;;;21.83;4.85;;;;;;;17.13;58.72;101949.56;10422610;28;20327;-54
2024/02/04 08:33:29;;;;;;;22.83;6.47;;;;;;;17.13;59.04;101963.75;10442315;28;20037;-54
2024/02/04 08:38:30;;;;;;;25.87;5.47;;;;;;;17.13;58.20;101938.84;10397255;28;20674;-55
2024/02/04 08:43:30;;;;;;;23.87;5.97;;;;;;;17.09;58.16;101948.44;10442623;28;20301;-54
2024/02/04 08:48:30;;;;;;;31.53;6.50;;;;;;;17.08;59.29;101939.59;10412418;28;20379;-56
2024/02/04 08:53:31;;;;;;;20.70;5.57;;;;;;;17.06;59.24;101939.06;10411287;28;20307;-55
2024/02/04 08:58:31;;;;;;;25.17;4.67;;;;;;;17.04;58.94;101935.81;10411251;28;20355;-54
2024/02/04 09:03:32;;;;;;;33.37;6.70;;;;;;;17.05;58.79;101929.41;10415294;28;20283;-54
2024/02/04 09:08:33;;;;;;;28.27;7.13;;;;;;;17.01;57.98;101925.59;10429099;28;20631;-54
2024/02/04 09:13:34;;;;;;;47.40;8.77;;;;;;;17.09;58.74;101922.47;10451533;28;20017;-57
2024/02/04 09:18:35;;;;;;;24.70;6.70;;;;;;;17.05;57.21;101923.22;10435269;28;20508;-56
2024/02/04 09:23:36;;;;;;;16.73;4.53;;;;;;;17.02;58.20;101926.41;10409675;28;20049;-56
2024/02/04 09:28:37;;;;;;;21.03;5.40;;;;;;;17.03;57.84;101918.09;10411149;28;20112;-55
2024/02/04 09:33:38;;;;;;;20.35;5.68;;;;;;;17.06;57.84;101922.19;10441118;28;20681;-55
2024/02/04 09:38:38;;;;;;;16.40;4.93;;;;;;;17.06;57.08;101927.53;10415173;28;20029;-55
2024/02/04 09:43:39;;;;;;;14.65;4.57;;;;;;;17.08;58.25;101936.13;10415522;28;20025;-55
2024/02/04 09:48:39;;;;;;;21.67;5.30;;;;;;;17.07;57.04;101937.19;10428719;28;20080;-55
2024/02/04 09:53:43;;;;;;;19.42;4.40;;;;;;;17.09;57.57;101932.38;10440021;28;20029;-55
2024/02/04 09:58:44;;;;;;;23.20;5.57;;;;;;;17.09;57.54;101938.53;10410338;28;20048;-54
2024/02/04 10:03:47;;;;;;;14.65;3.30;;;;;;;17.15;58.65;101937.50;10410510;28;20156;-56
2024/02/04 10:08:47;;;;;;;42.45;6.63;;;;;;;17.24;59.08;101933.28;10428092;28;20551;-55
2024/02/04 10:13:49;;;;;;;18.40;4.15;;;;;;;17.27;57.46;101942.69;10423053;28;20017;-54
2024/02/04 10:18:49;;;;;;;22.33;5.45;;;;;;;17.24;57.75;101941.34;10437284;28;20028;-54
2024/02/04 10:23:50;;;;;;;39.67;7.53;;;;;;;17.17;57.00;101945.31;10448250;28;20021;-54
2024/02/04 10:28:52;;;;;;;39.83;7.07;;;;;;;17.14;59.06;101951.97;10429063;28;20052;-55
2024/02/04 10:33:52;;;;;;;28.50;6.60;;;;;;;17.16;57.50;101939.13;10415414;28;20407;-54
2024/02/04 10:38:53;;;;;;;35.28;7.90;;;;;;;17.19;58.04;101944.00;10423957;28;20021;-54
2024/02/04 10:43:53;;;;;;;26.70;5.00;;;;;;;17.15;59.38;101942.06;10428266;28;20040;-54
2024/02/04 10:49:03;;;;;;;25.15;6.65;;;;;;;17.21;59.81;101936.50;10424542;28;20315;-53
2024/02/04 10:54:05;;;;;;;32.40;12.88;;;;;;;17.32;61.42;101940.06;10424599;28;20082;-54
2024/02/04 10:59:06;;;;;;;19.83;5.68;;;;;;;17.18;59.46;101945.06;10409681;28;20076;-53
2024/02/04 11:04:06;;;;;;;35.08;11.32;;;;;;;17.30;60.63;101933.34;10407625;28;20026;-51
2024/02/04 11:09:09;;;;;;;20.48;4.55;;;;;;;17.22;60.00;101935.44;10416264;28;20037;-53
2024/02/04 11:14:16;;;;;;;20.77;9.30;;;;;;;17.29;59.95;101931.72;10448506;28;20049;-55
2024/02/04 11:19:31;;;;;;;21.77;8.75;;;;;;;17.41;64.16;101938.53;10453551;28;20570;-53
2024/02/04 11:25:08;;;;;;;22.88;8.82;;;;;;;17.74;62.14;101934.72;10456180;28;20032;-50
2024/02/04 11:30:09;;;;;;;14.48;5.38;;;;;;;17.76;62.27;101924.56;10441533;28;20069;-51
2024/02/04 11:35:11;;;;;;;9.93;4.35;;;;;;;17.64;62.09;101925.78;10427301;28;20104;-55
2024/02/04 11:40:16;;;;;;;18.40;6.13;;;;;;;17.68;61.76;101922.34;10421951;28;20029;-53
2024/02/04 11:45:16;;;;;;;19.02;5.05;;;;;;;17.66;60.78;101910.25;10416334;28;20049;-56
2024/02/04 11:50:28;;;;;;;10.50;4.25;;;;;;;17.57;61.12;101885.00;10428863;28;20439;-50
2024/02/04 11:55:29;;;;;;;13.27;4.03;;;;;;;17.54;60.65;101878.28;10424550;28;20029;-54
2024/02/04 12:00:32;;;;;;;14.33;4.90;;;;;;;17.39;61.81;101876.28;10428443;28;20021;-50
2024/02/04 12:05:35;;;;;;;12.85;3.33;;;;;;;17.37;60.64;101891.84;10412938;28;20294;-53
2024/02/04 12:10:35;;;;;;;7.43;3.35;;;;;;;17.36;60.71;101887.53;10426221;28;20455;-53
2024/02/04 12:15:36;;;;;;;17.52;4.82;;;;;;;17.32;59.80;101874.91;10417564;28;20123;-53
2024/02/04 12:20:37;;;;;;;15.45;4.57;;;;;;;17.34;60.36;101870.09;10448805;28;20036;-54
2024/02/04 12:25:37;;;;;;;17.67;4.40;;;;;;;17.25;59.72;101859.84;10449070;28;20504;-53
2024/02/04 12:30:38;;;;;;;14.35;3.50;;;;;;;17.24;60.29;101852.88;10445050;28;20361;-55
2024/02/04 12:35:38;;;;;;;24.08;3.45;;;;;;;17.17;61.50;101856.88;10414353;28;20017;-54
2024/02/04 12:40:38;;;;;;;9.93;2.60;;;;;;;17.16;61.33;101860.59;10437704;28;20779;-54
2024/02/04 12:45:39;;;;;;;24.70;4.03;;;;;;;17.10;61.68;101861.63;10430160;28;20283;-55
2024/02/04 12:50:39;;;;;;;20.80;4.63;;;;;;;17.06;62.05;101864.03;10436899;28;20374;-53
2024/02/04 12:55:39;;;;;;;19.07;3.37;;;;;;;17.08;60.90;101871.81;10424991;28;20030;-56
2024/02/04 13:00:40;;;;;;;11.13;4.45;;;;;;;17.17;59.98;101864.91;10410288;28;20282;-55
2024/02/04 13:05:41;;;;;;;9.98;2.45;;;;;;;17.24;60.22;101857.44;10410380;28;20507;-56
2024/02/04 13:10:43;;;;;;;14.02;3.15;;;;;;;17.13;61.71;101845.03;10427683;28;20598;-55
2024/02/04 13:15:44;;;;;;;8.48;2.97;;;;;;;17.08;60.90;101832.41;10430587;28;20049;-55
2024/02/04 13:20:45;;;;;;;9.50;2.63;;;;;;;17.07;60.76;101832.69;10420910;28;20497;-55
2024/02/04 13:25:47;;;;;;;10.97;3.50;;;;;;;17.08;59.55;101843.13;10424371;28;20020;-52
2024/02/04 13:30:47;;;;;;;15.70;3.70;;;;;;;17.07;60.13;101854.13;10427568;28;20683;-55
2024/02/04 13:35:48;;;;;;;14.60;3.17;;;;;;;17.06;61.31;101847.16;10424836;28;20113;-55
2024/02/04 13:40:49;;;;;;;18.90;3.63;;;;;;;17.10;59.75;101824.94;10409207;28;20264;-54
2024/02/04 13:45:49;;;;;;;16.43;5.10;;;;;;;17.14;59.19;101815.28;10409839;28;20029;-52
2024/02/04 13:50:50;;;;;;;9.77;2.10;;;;;;;17.12;60.33;101825.47;10417534;28;20287;-53
2024/02/04 13:55:50;;;;;;;12.48;2.53;;;;;;;17.12;60.01;101836.19;10429765;28;20036;-54
2024/02/04 14:00:50;;;;;;;12.95;2.58;;;;;;;17.18;59.84;101821.78;10438140;28;20021;-54
2024/02/04 14:05:51;;;;;;;14.73;3.03;;;;;;;17.19;59.54;101814.53;10450550;28;20043;-53
2024/02/04 14:10:51;;;;;;;16.42;3.33;;;;;;;17.25;59.02;101813.47;10438258;28;20291;-54
2024/02/04 14:15:52;;;;;;;17.20;3.47;;;;;;;17.22;60.46;101805.97;10403264;28;20495;-51
2024/02/04 14:20:52;;;;;;;11.73;2.80;;;;;;;17.22;60.00;101827.41;10411418;28;20274;-49
2024/02/04 14:25:53;;;;;;;13.25;4.80;;;;;;;17.20;60.78;101816.94;10430680;28;20057;-54
2024/02/04 14:30:53;;;;;;;43.22;4.30;;;;;;;17.20;61.58;101814.28;10419652;28;20025;-54
2024/02/04 14:35:53;;;;;;;7.55;3.10;;;;;;;17.18;62.20;101797.66;10409158;28;20061;-51
2024/02/04 14:40:54;;;;;;;9.80;3.47;;;;;;;17.19;61.13;101793.09;10417618;28;20030;-52
2024/02/04 14:45:54;;;;;;;16.77;3.33;;;;;;;17.17;62.15;101787.19;10423896;28;20349;-49
2024/02/04 14:50:57;;;;;;;14.50;4.33;;;;;;;17.21;61.54;101797.13;10412686;28;20358;-51
2024/02/04 14:55:57;;;;;;;16.65;3.50;;;;;;;17.17;62.04;101803.28;10437145;28;20279;-53
2024/02/04 15:00:57;;;;;;;15.40;3.17;;;;;;;17.14;62.05;101801.91;10448824;28;20013;-47
2024/02/04 15:05:58;;;;;;;14.40;3.55;;;;;;;17.13;61.94;101778.03;10416905;28;20275;-50
2024/02/04 15:10:58;;;;;;;22.87;4.93;;;;;;;17.12;60.65;101779.91;10433703;28;20095;-49
2024/02/04 15:15:59;;;;;;;20.85;4.35;;;;;;;17.07;61.39;101769.19;10456415;28;20294;-56
2024/02/04 15:20:59;;;;;;;26.50;5.18;;;;;;;17.04;61.49;101793.78;10456358;28;20395;-56
2024/02/04 15:26:00;;;;;;;9.27;3.65;;;;;;;17.10;60.01;101797.31;10432921;28;20029;-53
2024/02/04 15:31:00;;;;;;;22.58;4.05;;;;;;;17.04;60.40;101785.75;10413503;28;20068;-56
2024/02/04 15:36:01;;;;;;;20.45;4.35;;;;;;;17.00;61.82;101779.31;10418560;28;20500;-56
2024/02/04 15:41:01;;;;;;;20.20;5.27;;;;;;;17.25;60.76;101757.19;10427125;28;20028;-54
2024/02/04 15:46:07;;;;;;;14.87;3.93;;;;;;;17.43;60.66;101759.44;10454496;28;20624;-55
2024/02/04 15:51:08;;;;;;;18.08;5.07;;;;;;;17.38;60.42;101750.53;10454262;28;20844;-50
2024/02/04 15:56:10;;;;;;;17.83;5.95;;;;;;;17.29;60.32;101742.22;10454257;28;20021;-56
2024/02/04 16:01:12;;;;;;;13.77;5.70;;;;;;;17.29;61.07;101707.38;10421205;28;20030;-54
2024/02/04 16:06:13;;;;;;;13.07;4.85;;;;;;;17.34;62.07;101720.78;10411197;28;20492;-55
2024/02/04 16:11:16;;;;;;;8.48;4.15;;;;;;;17.27;61.03;101727.44;10434608;28;20030;-54
2024/02/04 16:16:20;;;;;;;11.20;4.65;;;;;;;17.25;61.53;101717.00;10414648;28;20063;-50
2024/02/04 16:21:21;;;;;;;17.77;5.05;;;;;;;17.23;60.61;101730.66;10438144;28;20025;-55
2024/02/04 16:26:22;;;;;;;14.32;4.65;;;;;;;17.28;60.99;101719.13;10439002;28;20432;-54
2024/02/04 16:31:23;;;;;;;7.63;3.50;;;;;;;17.36;62.16;101721.31;10411965;28;20091;-53
2024/02/04 16:36:23;;;;;;;12.63;3.42;;;;;;;17.37;60.17;101706.03;10426751;28;20037;-55
2024/02/04 16:41:23;;;;;;;9.90;3.30;;;;;;;17.46;61.02;101699.91;10425173;28;20018;-55
2024/02/04 16:46:24;;;;;;;11.70;3.17;;;;;;;17.46;60.38;101707.97;10438209;28;20326;-55
2024/02/04 16:51:24;;;;;;;9.50;3.67;;;;;;;17.36;61.06;101709.78;10438575;28;21217;-55
2024/02/04 16:56:24;;;;;;;12.20;4.10;;;;;;;17.46;59.49;101713.31;10417490;28;20315;-56
2024/02/04 17:01:28;;;;;;;8.13;2.83;;;;;;;17.41;60.49;101713.31;10442206;28;20275;-53
2024/02/04 17:06:29;;;;;;;7.38;2.58;;;;;;;17.47;58.86;101720.28;10414528;28;20037;-55
2024/02/04 17:11:30;;;;;;;8.50;2.28;;;;;;;17.43;58.83;101721.91;10434761;28;20026;-55
2024/02/04 17:16:39;;;;;;;9.85;2.20;;;;;;;17.43;59.64;101721.09;10406073;28;20346;-53
2024/02/04 17:21:40;;;;;;;;;;;;;;;17.43;60.01;101710.38;10426901;28;20034;-53
2024/02/04 17:26:40;;;;;;;18.58;3.17;;;;;;;17.40;60.20;101697.47;10440534;28;20494;-54
2024/02/04 17:31:41;;;;;;;17.85;3.97;;;;;;;17.33;61.21;101702.28;10450473;28;20072;-53
2024/02/04 17:36:41;;;;;;;16.50;3.47;;;;;;;17.33;59.69;101697.72;10422576;28;20032;-54
2024/02/04 17:41:41;;;;;;;32.87;5.03;;;;;;;17.30;61.99;101700.13;10407847;28;20480;-54
2024/02/04 17:46:42;;;;;;;24.53;5.93;;;;;;;17.29;61.05;101717.28;10406019;28;20291;-54
2024/02/04 17:51:43;;;;;;;16.33;4.10;;;;;;;17.25;61.77;101708.94;10405378;28;20640;-54
2024/02/04 17:56:43;;;;;;;21.17;4.85;;;;;;;17.22;61.69;101699.56;10411574;28;20292;-54
2024/02/04 18:01:44;;;;;;;20.20;3.90;;;;;;;17.21;62.29;101706.00;10405211;28;20033;-54
2024/02/04 18:06:44;;;;;;;21.65;4.28;;;;;;;17.19;61.01;101699.28;10405462;28;20033;-57
2024/02/04 18:11:46;;;;;;;24.10;4.07;;;;;;;17.22;60.78;101690.72;10405926;28;20045;-53
2024/02/04 18:16:46;;;;;;;19.92;5.00;;;;;;;17.18;60.76;101670.88;10407204;28;20307;-54
2024/02/04 18:21:49;;;;;;;9.88;3.03;;;;;;;17.12;61.90;101666.56;10418054;28;20021;-53
2024/02/04 18:26:50;;;;;;;10.15;3.15;;;;;;;17.09;60.28;101662.53;10408703;28;20026;-54
2024/02/04 18:31:50;;;;;;;24.80;3.33;;;;;;;17.11;61.11;101672.97;10416907;28;20495;-55
2024/02/04 18:36:50;;;;;;;7.87;2.37;;;;;;;17.14;60.55;101675.13;10424382;28;20030;-53
2024/02/04 18:41:51;;;;;;;15.43;3.07;;;;;;;17.05;62.21;101672.16;10413082;28;20671;-55
2024/02/04 18:46:52;;;;;;;8.95;2.55;;;;;;;17.11;60.50;101683.69;10428341;28;20272;-53
2024/02/04 18:51:52;;;;;;;16.50;2.80;;;;;;;17.14;60.91;101683.97;10415980;28;20025;-56
2024/02/04 18:56:52;;;;;;;11.60;3.00;;;;;;;17.14;60.29;101667.91;10431647;28;20113;-54
2024/02/04 19:01:54;;;;;;;8.63;2.60;;;;;;;17.13;60.35;101668.16;10412654;28;20380;-56
2024/02/04 19:06:55;;;;;;;5.50;2.40;;;;;;;17.14;59.96;101675.13;10412425;28;20292;-57
2024/02/04 19:11:56;;;;;;;8.90;2.47;;;;;;;17.12;60.22;101671.91;10414179;28;20492;-56
2024/02/04 19:16:56;;;;;;;8.27;2.38;;;;;;;17.14;59.12;101659.84;10411217;28;20295;-56
2024/02/04 19:21:57;;;;;;;8.50;2.78;;;;;;;17.12;59.54;101647.78;10427246;28;20025;-56
2024/02/04 19:26:57;;;;;;;12.80;3.57;;;;;;;17.08;60.52;101652.06;10412349;28;20056;-55
2024/02/04 19:31:58;;;;;;;8.20;2.15;;;;;;;17.15;59.78;101647.25;10412054;28;20648;-56
2024/02/04 19:36:58;;;;;;;9.60;2.30;;;;;;;17.17;59.95;101648.63;10413784;28;20528;-54
2024/02/04 19:42:00;;;;;;;5.25;2.60;;;;;;;17.19;60.07;101667.94;10410310;28;20264;-54
2024/02/04 19:47:00;;;;;;;8.15;1.85;;;;;;;17.20;60.52;101666.88;10424348;28;20020;-55
2024/02/04 19:52:01;;;;;;;7.60;2.10;;;;;;;17.21;60.22;101667.66;10410424;28;20095;-55
2024/02/04 19:57:02;;;;;;;6.95;2.20;;;;;;;17.19;59.71;101665.25;10410312;28;20284;-56
2024/02/04 20:02:03;;;;;;;6.28;2.03;;;;;;;17.15;60.66;101657.97;10417841;28;20014;-56
2024/02/04 20:07:04;;;;;;;3.78;1.80;;;;;;;17.13;60.78;101665.47;10422732;28;20030;-55
2024/02/04 20:12:06;;;;;;;5.75;1.75;;;;;;;17.12;61.13;101669.25;10421319;28;20071;-55
2024/02/04 20:17:07;;;;;;;5.13;1.83;;;;;;;17.15;59.36;101663.34;10408855;28;20513;-57
2024/02/04 20:22:07;;;;;;;4.50;1.90;;;;;;;17.14;59.88;101651.81;10409403;28;20122;-55
2024/02/04 20:27:08;;;;;;;7.07;1.90;;;;;;;17.13;60.12;101655.56;10409869;28;20639;-55
2024/02/04 20:32:08;;;;;;;7.43;2.30;;;;;;;17.13;59.85;101644.84;10434371;28;20057;-55
2024/02/04 20:37:09;;;;;;;8.50;1.83;;;;;;;17.14;59.74;101654.50;10417579;28;20048;-55
2024/02/04 20:42:10;;;;;;;3.13;1.93;;;;;;;17.17;58.60;101639.78;10417938;28;20577;-56
2024/02/04 20:47:10;;;;;;;4.78;2.03;;;;;;;17.15;58.17;101668.69;10412108;28;20276;-55
2024/02/04 20:52:11;;;;;;;6.60;2.55;;;;;;;17.20;58.68;101641.94;10411526;28;20083;-55
2024/02/04 20:57:11;;;;;;;6.55;1.98;;;;;;;17.24;58.63;101667.94;10411085;28;20029;-55
2024/02/04 21:02:12;;;;;;;4.33;1.97;;;;;;;17.27;57.89;101647.84;10411788;28;20637;-55
2024/02/04 21:07:12;;;;;;;5.97;1.35;;;;;;;17.29;58.00;101667.16;10412900;28;20318;-55
2024/02/04 21:12:13;;;;;;;5.30;2.08;;;;;;;17.31;58.00;101662.34;10421548;28;20018;-56
2024/02/04 21:17:13;;;;;;;6.57;1.63;;;;;;;17.37;58.25;101665.84;10410209;28;20509;-56
2024/02/04 21:22:13;;;;;;;3.53;1.50;;;;;;;17.41;58.18;101673.09;10410407;28;20268;-56
2024/02/04 21:27:13;;;;;;;3.00;1.50;;;;;;;17.38;57.18;101670.94;10410034;28;20943;-55
2024/02/04 21:32:15;;;;;;;3.50;1.43;;;;;;;17.42;57.35;101665.88;10450026;28;20288;-55
2024/02/04 21:37:16;;;;;;;5.25;1.35;;;;;;;17.41;57.32;101665.06;10409508;28;20279;-55
2024/02/04 21:42:16;;;;;;;2.15;1.35;;;;;;;17.42;56.88;101664.00;10404934;28;20465;-56
2024/02/04 21:47:19;;;;;;;7.22;2.00;;;;;;;17.42;57.08;101658.63;10409188;28;20044;-54
2024/02/04 21:52:19;;;;;;;4.00;1.65;;;;;;;17.43;57.60;101670.97;10408203;28;20029;-56
2024/02/04 21:57:19;;;;;;;4.03;1.30;;;;;;;17.46;56.95;101662.38;10409475;28;20033;-56
2024/02/04 22:02:20;;;;;;;3.93;1.37;;;;;;;17.43;56.86;101679.00;10408820;28;20279;-56
2024/02/04 22:07:20;;;;;;;7.53;1.87;;;;;;;17.42;56.77;101676.59;10408972;28;20291;-56
2024/02/04 22:12:20;;;;;;;6.73;2.07;;;;;;;17.44;57.61;101680.59;10439974;28;20032;-56
2024/02/04 22:17:21;;;;;;;6.73;1.97;;;;;;;17.47;57.71;101657.81;10449876;28;20288;-56
2024/02/04 22:22:24;;;;;;;6.15;1.73;;;;;;;17.46;57.03;101664.25;10450197;28;20302;-56
2024/02/04 22:27:24;;;;;;;4.75;1.55;;;;;;;17.49;56.42;101667.19;10450206;28;20056;-57
2024/02/04 22:32:25;;;;;;;5.63;1.90;;;;;;;17.50;56.35;101665.31;10448266;28;20120;-56
2024/02/04 22:37:25;;;;;;;4.30;1.58;;;;;;;17.47;56.09;101682.75;10425619;28;20053;-54
2024/02/04 22:42:26;;;;;;;3.35;1.45;;;;;;;17.45;56.54;101671.50;10408349;28;20104;-56
2024/02/04 22:47:26;;;;;;;3.77;1.70;;;;;;;17.48;56.64;101680.88;10407946;28;20412;-55
2024/02/04 22:52:26;;;;;;;4.80;1.35;;;;;;;17.45;56.79;101676.84;10408046;28;20291;-56
2024/02/04 22:57:27;;;;;;;3.37;1.93;;;;;;;17.46;56.26;101683.81;10407709;28;20545;-56